PWSweather.com
Personal Weather Stations
Station Observations
DW6359
Southwest Cambria, Cambria, WI 53923

Southwest CambriaCambria, WI 53923

Lat: 43.541194, Lon: -89.11275

Elevation: 945

Station Type: Davis Vantage Pro2

http://home.centurytel.net/weathercambria/wxcambria.html

High Low Average
Temperature 38.8°F3.8°C 32.8°F0.4°C 35.6°F2.0°C
Dew Point 34.9°F1.6°C 29.7°F-1.3°C 31.8°F-0.1°C
Winds 8.0 mph 12.9 kmh Calm Calm 1.0 mph E1.6 kmh E
Wind Gusts 11.0 mph17.7 kmh -- 1.0 mph1.6 kmh
Humidity 89% 81% 86%
Pressure 29.94 in1013.9 mb 29.85 in1010.8 mb -
Precipitation 0.08 in2.0 mm - -
Hour Temp Dew Point Humidity Winds Wind Gusts Pressure Precip Precip Rate Daily Precip Total
12:00 AM 37.0°F2.8°C 32.0°F0.0°C 82% 4.0 mph SSE6.4 kmh SSE -- 29.93 in1013.5 mb 0.00 in0.0 mm 0.00 in0.0 mm 0.00 in0.0 mm
12:05 AM 37.0°F2.8°C 32.0°F0.0°C 82% 5.0 mph S8.0 kmh S -- 29.93 in1013.5 mb 0.00 in0.0 mm 0.00 in0.0 mm 0.00 in0.0 mm
12:10 AM 37.0°F2.8°C 32.0°F0.0°C 82% 3.0 mph S4.8 kmh S -- 29.93 in1013.5 mb 0.00 in0.0 mm 0.00 in0.0 mm 0.00 in0.0 mm
12:15 AM 36.9°F2.7°C 31.9°F-0.1°C 82% 6.0 mph SE9.7 kmh SE -- 29.93 in1013.5 mb 0.00 in0.0 mm 0.00 in0.0 mm 0.00 in0.0 mm
12:20 AM 36.9°F2.7°C 31.9°F-0.1°C 82% 3.0 mph S4.8 kmh S 9.0 mph14.5 kmh 29.93 in1013.5 mb 0.00 in0.0 mm 0.00 in0.0 mm 0.00 in0.0 mm
12:25 AM 36.8°F2.7°C 31.8°F-0.1°C 82% 5.0 mph S8.0 kmh S 9.0 mph14.5 kmh 29.93 in1013.5 mb 0.00 in0.0 mm 0.00 in0.0 mm 0.00 in0.0 mm
12:30 AM 36.7°F2.6°C 31.7°F-0.2°C 82% 7.0 mph SE11.3 kmh SE -- 29.93 in1013.5 mb 0.00 in0.0 mm 0.00 in0.0 mm 0.00 in0.0 mm
12:35 AM 36.6°F2.6°C 31.6°F-0.2°C 82% 3.0 mph S4.8 kmh S -- 29.93 in1013.5 mb 0.00 in0.0 mm 0.00 in0.0 mm 0.00 in0.0 mm
12:40 AM 36.5°F2.5°C 31.5°F-0.3°C 82% 3.0 mph SSE4.8 kmh SSE -- 29.92 in1013.2 mb 0.00 in0.0 mm 0.00 in0.0 mm 0.00 in0.0 mm
12:45 AM 36.4°F2.4°C 31.4°F-0.3°C 82% Calm Calm -- 29.92 in1013.2 mb 0.00 in0.0 mm 0.00 in0.0 mm 0.00 in0.0 mm
12:50 AM 36.4°F2.4°C 31.4°F-0.3°C 82% Calm Calm -- 29.91 in1012.9 mb 0.00 in0.0 mm 0.00 in0.0 mm 0.00 in0.0 mm
12:55 AM 36.2°F2.3°C 31.2°F-0.4°C 82% Calm Calm -- 29.92 in1013.2 mb 0.00 in0.0 mm 0.00 in0.0 mm 0.00 in0.0 mm
01:00 AM 36.2°F2.3°C 31.5°F-0.3°C 83% Calm Calm -- 29.92 in1013.2 mb 0.00 in0.0 mm 0.00 in0.0 mm 0.00 in0.0 mm
01:05 AM 36.2°F2.3°C 31.5°F-0.3°C 83% Calm Calm -- 29.91 in1012.9 mb 0.00 in0.0 mm 0.00 in0.0 mm 0.00 in0.0 mm
01:10 AM 36.2°F2.3°C 31.5°F-0.3°C 83% Calm Calm -- 29.91 in1012.9 mb 0.00 in0.0 mm 0.00 in0.0 mm 0.00 in0.0 mm
01:15 AM 36.2°F2.3°C 31.5°F-0.3°C 83% Calm Calm -- 29.91 in1012.9 mb 0.00 in0.0 mm 0.00 in0.0 mm 0.00 in0.0 mm
01:20 AM 36.2°F2.3°C 31.5°F-0.3°C 83% Calm Calm -- 29.91 in1012.9 mb 0.00 in0.0 mm 0.00 in0.0 mm 0.00 in0.0 mm
01:25 AM 36.2°F2.3°C 31.5°F-0.3°C 83% 3.0 mph SSE4.8 kmh SSE -- 29.91 in1012.9 mb 0.00 in0.0 mm 0.00 in0.0 mm 0.00 in0.0 mm
01:30 AM 36.2°F2.3°C 31.5°F-0.3°C 83% 4.0 mph SSE6.4 kmh SSE -- 29.91 in1012.9 mb 0.00 in0.0 mm 0.00 in0.0 mm 0.00 in0.0 mm
01:35 AM 36.2°F2.3°C 31.5°F-0.3°C 83% Calm Calm -- 29.91 in1012.9 mb 0.00 in0.0 mm 0.00 in0.0 mm 0.00 in0.0 mm
01:40 AM 36.2°F2.3°C 31.5°F-0.3°C 83% Calm Calm -- 29.90 in1012.5 mb 0.00 in0.0 mm 0.00 in0.0 mm 0.00 in0.0 mm
01:45 AM 36.2°F2.3°C 31.5°F-0.3°C 83% 1.0 mph SSE1.6 kmh SSE -- 29.90 in1012.5 mb 0.00 in0.0 mm 0.00 in0.0 mm 0.00 in0.0 mm
01:50 AM 36.2°F2.3°C 31.5°F-0.3°C 83% 3.0 mph SSE4.8 kmh SSE -- 29.90 in1012.5 mb 0.00 in0.0 mm 0.00 in0.0 mm 0.00 in0.0 mm
01:55 AM 36.2°F2.3°C 31.5°F-0.3°C 83% Calm Calm -- 29.90 in1012.5 mb 0.00 in0.0 mm 0.00 in0.0 mm 0.00 in0.0 mm
02:00 AM 36.1°F2.3°C 31.4°F-0.3°C 83% Calm Calm 4.0 mph6.4 kmh 29.90 in1012.5 mb 0.00 in0.0 mm 0.00 in0.0 mm 0.00 in0.0 mm
02:05 AM 36.1°F2.3°C 31.4°F-0.3°C 83% Calm Calm 4.0 mph6.4 kmh 29.90 in1012.5 mb 0.00 in0.0 mm 0.00 in0.0 mm 0.00 in0.0 mm
02:10 AM 36.1°F2.3°C 31.4°F-0.3°C 83% Calm Calm -- 29.90 in1012.5 mb 0.00 in0.0 mm 0.00 in0.0 mm 0.00 in0.0 mm
02:15 AM 36.2°F2.3°C 31.5°F-0.3°C 83% Calm Calm -- 29.90 in1012.5 mb 0.00 in0.0 mm 0.00 in0.0 mm 0.00 in0.0 mm
02:20 AM 36.2°F2.3°C 31.5°F-0.3°C 83% Calm Calm -- 29.90 in1012.5 mb 0.00 in0.0 mm 0.00 in0.0 mm 0.00 in0.0 mm
02:25 AM 36.3°F2.4°C 31.6°F-0.2°C 83% Calm Calm -- 29.90 in1012.5 mb 0.00 in0.0 mm 0.00 in0.0 mm 0.00 in0.0 mm
02:30 AM 36.3°F2.4°C 31.6°F-0.2°C 83% 3.0 mph SSE4.8 kmh SSE -- 29.90 in1012.5 mb 0.00 in0.0 mm 0.00 in0.0 mm 0.00 in0.0 mm
02:35 AM 36.3°F2.4°C 31.9°F-0.1°C 84% Calm Calm -- 29.90 in1012.5 mb 0.00 in0.0 mm 0.00 in0.0 mm 0.00 in0.0 mm
02:40 AM 36.3°F2.4°C 31.9°F-0.1°C 84% Calm Calm -- 29.90 in1012.5 mb 0.00 in0.0 mm 0.00 in0.0 mm 0.00 in0.0 mm
02:45 AM 36.4°F2.4°C 32.0°F0.0°C 84% Calm Calm -- 29.90 in1012.5 mb 0.00 in0.0 mm 0.00 in0.0 mm 0.00 in0.0 mm
02:50 AM 36.4°F2.4°C 32.0°F0.0°C 84% 3.0 mph SSE4.8 kmh SSE 6.0 mph9.7 kmh 29.89 in1012.2 mb 0.00 in0.0 mm 0.00 in0.0 mm 0.00 in0.0 mm
02:55 AM 36.4°F2.4°C 32.0°F0.0°C 84% Calm Calm 6.0 mph9.7 kmh 29.90 in1012.5 mb 0.00 in0.0 mm 0.00 in0.0 mm 0.00 in0.0 mm
03:00 AM 36.4°F2.4°C 32.0°F0.0°C 84% 3.0 mph SSE4.8 kmh SSE -- 29.90 in1012.5 mb 0.00 in0.0 mm 0.00 in0.0 mm 0.00 in0.0 mm
03:05 AM 36.4°F2.4°C 32.0°F0.0°C 84% 3.0 mph SSE4.8 kmh SSE -- 29.90 in1012.5 mb 0.00 in0.0 mm 0.00 in0.0 mm 0.00 in0.0 mm
03:10 AM 36.4°F2.4°C 32.0°F0.0°C 84% 4.0 mph SSE6.4 kmh SSE -- 29.90 in1012.5 mb 0.00 in0.0 mm 0.00 in0.0 mm 0.00 in0.0 mm
03:15 AM 36.4°F2.4°C 32.0°F0.0°C 84% 4.0 mph SSE6.4 kmh SSE -- 29.90 in1012.5 mb 0.00 in0.0 mm 0.00 in0.0 mm 0.00 in0.0 mm
03:20 AM 36.5°F2.5°C 33.6°F0.9°C 89% 2.0 mph SSE3.2 kmh SSE -- 29.91 in1012.9 mb 0.00 in0.0 mm 0.00 in0.0 mm 0.00 in0.0 mm
03:25 AM 36.6°F2.6°C 32.2°F0.1°C 84% 5.0 mph SSE8.0 kmh SSE -- 29.91 in1012.9 mb 0.00 in0.0 mm 0.00 in0.0 mm 0.00 in0.0 mm
03:30 AM 36.6°F2.6°C 32.2°F0.1°C 84% 2.0 mph SSE3.2 kmh SSE -- 29.91 in1012.9 mb 0.00 in0.0 mm 0.00 in0.0 mm 0.00 in0.0 mm
03:35 AM 36.6°F2.6°C 32.2°F0.1°C 84% 2.0 mph SSE3.2 kmh SSE -- 29.91 in1012.9 mb 0.00 in0.0 mm 0.00 in0.0 mm 0.00 in0.0 mm
03:40 AM 36.5°F2.5°C 32.1°F0.1°C 84% 3.0 mph S4.8 kmh S 5.0 mph8.0 kmh 29.91 in1012.9 mb 0.00 in0.0 mm 0.00 in0.0 mm 0.00 in0.0 mm
03:45 AM 36.5°F2.5°C 32.1°F0.1°C 84% 3.0 mph S4.8 kmh S 5.0 mph8.0 kmh 29.91 in1012.9 mb 0.00 in0.0 mm 0.00 in0.0 mm 0.00 in0.0 mm
03:50 AM 36.6°F2.6°C 32.2°F0.1°C 84% 2.0 mph S3.2 kmh S -- 29.90 in1012.5 mb 0.00 in0.0 mm 0.00 in0.0 mm 0.00 in0.0 mm
03:55 AM 36.5°F2.5°C 32.1°F0.1°C 84% Calm Calm -- 29.89 in1012.2 mb 0.00 in0.0 mm 0.00 in0.0 mm 0.00 in0.0 mm
04:00 AM 36.5°F2.5°C 32.1°F0.1°C 84% Calm Calm -- 29.89 in1012.2 mb 0.00 in0.0 mm 0.00 in0.0 mm 0.00 in0.0 mm
04:05 AM 36.5°F2.5°C 33.6°F0.9°C 89% Calm Calm -- 29.89 in1012.2 mb 0.00 in0.0 mm 0.00 in0.0 mm 0.00 in0.0 mm
04:10 AM 36.4°F2.4°C 32.0°F0.0°C 84% Calm Calm -- 29.89 in1012.2 mb 0.00 in0.0 mm 0.00 in0.0 mm 0.00 in0.0 mm
04:15 AM 36.4°F2.4°C 32.0°F0.0°C 84% Calm Calm -- 29.89 in1012.2 mb 0.00 in0.0 mm 0.00 in0.0 mm 0.00 in0.0 mm
04:20 AM 36.3°F2.4°C 31.9°F-0.1°C 84% Calm Calm -- 29.89 in1012.2 mb 0.00 in0.0 mm 0.00 in0.0 mm 0.00 in0.0 mm
04:25 AM 36.2°F2.3°C 31.8°F-0.1°C 84% Calm Calm -- 29.89 in1012.2 mb 0.00 in0.0 mm 0.00 in0.0 mm 0.00 in0.0 mm
04:30 AM 36.1°F2.3°C 31.7°F-0.2°C 84% Calm Calm -- 29.88 in1011.9 mb 0.00 in0.0 mm 0.00 in0.0 mm 0.00 in0.0 mm
04:35 AM 36.1°F2.3°C 32.0°F0.0°C 85% 4.0 mph S6.4 kmh S -- 29.88 in1011.9 mb 0.00 in0.0 mm 0.00 in0.0 mm 0.00 in0.0 mm
04:40 AM 36.0°F2.2°C 31.9°F-0.1°C 85% 2.0 mph S3.2 kmh S -- 29.88 in1011.9 mb 0.00 in0.0 mm 0.00 in0.0 mm 0.00 in0.0 mm
04:45 AM 36.0°F2.2°C 31.9°F-0.1°C 85% 3.0 mph S4.8 kmh S -- 29.88 in1011.9 mb 0.00 in0.0 mm 0.00 in0.0 mm 0.00 in0.0 mm
04:50 AM 35.9°F2.2°C 31.8°F-0.1°C 85% 2.0 mph S3.2 kmh S -- 29.89 in1012.2 mb 0.00 in0.0 mm 0.00 in0.0 mm 0.00 in0.0 mm
04:55 AM 35.9°F2.2°C 31.8°F-0.1°C 85% 2.0 mph S3.2 kmh S -- 29.89 in1012.2 mb 0.00 in0.0 mm 0.00 in0.0 mm 0.00 in0.0 mm
05:00 AM 35.9°F2.2°C 31.8°F-0.1°C 85% 2.0 mph S3.2 kmh S -- 29.90 in1012.5 mb 0.00 in0.0 mm 0.00 in0.0 mm 0.00 in0.0 mm
05:05 AM 36.0°F2.2°C 31.9°F-0.1°C 85% Calm Calm -- 29.90 in1012.5 mb 0.00 in0.0 mm 0.00 in0.0 mm 0.00 in0.0 mm
05:10 AM 36.0°F2.2°C 31.9°F-0.1°C 85% Calm Calm -- 29.90 in1012.5 mb 0.00 in0.0 mm 0.00 in0.0 mm 0.00 in0.0 mm
05:15 AM 35.9°F2.2°C 31.8°F-0.1°C 85% Calm Calm -- 29.90 in1012.5 mb 0.00 in0.0 mm 0.00 in0.0 mm 0.00 in0.0 mm
05:20 AM 35.9°F2.2°C 31.8°F-0.1°C 85% 3.0 mph S4.8 kmh S 4.0 mph6.4 kmh 29.89 in1012.2 mb 0.00 in0.0 mm 0.00 in0.0 mm 0.00 in0.0 mm
05:25 AM 35.9°F2.2°C 31.8°F-0.1°C 85% 4.0 mph S6.4 kmh S 4.0 mph6.4 kmh 29.90 in1012.5 mb 0.00 in0.0 mm 0.00 in0.0 mm 0.00 in0.0 mm
05:30 AM 35.9°F2.2°C 31.8°F-0.1°C 85% 1.0 mph S1.6 kmh S -- 29.89 in1012.2 mb 0.00 in0.0 mm 0.00 in0.0 mm 0.00 in0.0 mm
05:35 AM 35.9°F2.2°C 31.8°F-0.1°C 85% Calm Calm -- 29.89 in1012.2 mb 0.00 in0.0 mm 0.00 in0.0 mm 0.00 in0.0 mm
05:40 AM 35.9°F2.2°C 31.8°F-0.1°C 85% 3.0 mph S4.8 kmh S -- 29.89 in1012.2 mb 0.00 in0.0 mm 0.00 in0.0 mm 0.00 in0.0 mm
05:45 AM 36.0°F2.2°C 31.9°F-0.1°C 85% 2.0 mph S3.2 kmh S -- 29.89 in1012.2 mb 0.00 in0.0 mm 0.00 in0.0 mm 0.00 in0.0 mm
05:50 AM 35.9°F2.2°C 31.8°F-0.1°C 85% 2.0 mph SSE3.2 kmh SSE -- 29.89 in1012.2 mb 0.00 in0.0 mm 0.00 in0.0 mm 0.00 in0.0 mm
05:55 AM 35.8°F2.1°C 31.7°F-0.2°C 85% 2.0 mph SSE3.2 kmh SSE -- 29.90 in1012.5 mb 0.00 in0.0 mm 0.00 in0.0 mm 0.00 in0.0 mm
06:00 AM 35.8°F2.1°C 31.7°F-0.2°C 85% 1.0 mph SSE1.6 kmh SSE -- 29.91 in1012.9 mb 0.00 in0.0 mm 0.00 in0.0 mm 0.00 in0.0 mm
06:05 AM 35.8°F2.1°C 31.7°F-0.2°C 85% Calm Calm -- 29.90 in1012.5 mb 0.00 in0.0 mm 0.00 in0.0 mm 0.00 in0.0 mm
06:10 AM 35.8°F2.1°C 31.7°F-0.2°C 85% 2.0 mph SSE3.2 kmh SSE 4.0 mph6.4 kmh 29.91 in1012.9 mb 0.00 in0.0 mm 0.00 in0.0 mm 0.00 in0.0 mm
06:15 AM 35.8°F2.1°C 32.0°F0.0°C 86% 1.0 mph SSE1.6 kmh SSE 4.0 mph6.4 kmh 29.91 in1012.9 mb 0.00 in0.0 mm 0.00 in0.0 mm 0.00 in0.0 mm
06:20 AM 35.9°F2.2°C 32.1°F0.1°C 86% Calm Calm -- 29.91 in1012.9 mb 0.00 in0.0 mm 0.00 in0.0 mm 0.00 in0.0 mm
06:25 AM 35.9°F2.2°C 32.1°F0.1°C 86% Calm Calm -- 29.91 in1012.9 mb 0.00 in0.0 mm 0.00 in0.0 mm 0.00 in0.0 mm
06:30 AM 35.9°F2.2°C 32.1°F0.1°C 86% Calm Calm -- 29.90 in1012.5 mb 0.00 in0.0 mm 0.00 in0.0 mm 0.00 in0.0 mm
06:35 AM 35.9°F2.2°C 32.1°F0.1°C 86% Calm Calm -- 29.90 in1012.5 mb 0.00 in0.0 mm 0.00 in0.0 mm 0.00 in0.0 mm
06:40 AM 35.8°F2.1°C 31.7°F-0.2°C 85% Calm Calm -- 29.90 in1012.5 mb 0.00 in0.0 mm 0.00 in0.0 mm 0.00 in0.0 mm
06:45 AM 35.7°F2.1°C 31.6°F-0.2°C 85% Calm Calm -- 29.89 in1012.2 mb 0.00 in0.0 mm 0.00 in0.0 mm 0.00 in0.0 mm
06:50 AM 35.6°F2.0°C 31.8°F-0.1°C 86% Calm Calm -- 29.90 in1012.5 mb 0.00 in0.0 mm 0.00 in0.0 mm 0.00 in0.0 mm
06:55 AM 35.6°F2.0°C 31.8°F-0.1°C 86% Calm Calm -- 29.90 in1012.5 mb 0.00 in0.0 mm 0.00 in0.0 mm 0.00 in0.0 mm
07:00 AM 35.5°F1.9°C 31.7°F-0.2°C 86% Calm Calm -- 29.90 in1012.5 mb 0.00 in0.0 mm 0.00 in0.0 mm 0.00 in0.0 mm
07:05 AM 35.5°F1.9°C 31.7°F-0.2°C 86% Calm Calm -- 29.90 in1012.5 mb 0.00 in0.0 mm 0.00 in0.0 mm 0.00 in0.0 mm
07:10 AM 35.4°F1.9°C 31.6°F-0.2°C 86% Calm Calm -- 29.90 in1012.5 mb 0.00 in0.0 mm 0.00 in0.0 mm 0.00 in0.0 mm
07:15 AM 35.3°F1.8°C 31.5°F-0.3°C 86% Calm Calm -- 29.90 in1012.5 mb 0.00 in0.0 mm 0.00 in0.0 mm 0.00 in0.0 mm
07:20 AM 35.2°F1.8°C 31.4°F-0.3°C 86% Calm Calm -- 29.91 in1012.9 mb 0.00 in0.0 mm 0.00 in0.0 mm 0.00 in0.0 mm
07:25 AM 35.1°F1.7°C 31.3°F-0.4°C 86% Calm Calm -- 29.90 in1012.5 mb 0.00 in0.0 mm 0.00 in0.0 mm 0.00 in0.0 mm
07:30 AM 35.0°F1.7°C 31.2°F-0.4°C 86% Calm Calm -- 29.89 in1012.2 mb 0.00 in0.0 mm 0.00 in0.0 mm 0.00 in0.0 mm
07:35 AM 34.9°F1.6°C 31.1°F-0.5°C 86% Calm Calm -- 29.90 in1012.5 mb 0.00 in0.0 mm 0.00 in0.0 mm 0.00 in0.0 mm
07:40 AM 34.8°F1.6°C 31.0°F-0.6°C 86% Calm Calm -- 29.90 in1012.5 mb 0.00 in0.0 mm 0.00 in0.0 mm 0.00 in0.0 mm
07:45 AM 34.6°F1.4°C 30.9°F-0.6°C 86% Calm Calm -- 29.90 in1012.5 mb 0.00 in0.0 mm 0.00 in0.0 mm 0.00 in0.0 mm
07:50 AM 34.3°F1.3°C 30.6°F-0.8°C 86% Calm Calm -- 29.90 in1012.5 mb 0.00 in0.0 mm 0.00 in0.0 mm 0.00 in0.0 mm
07:55 AM 34.2°F1.2°C 30.7°F-0.7°C 87% Calm Calm -- 29.91 in1012.9 mb 0.00 in0.0 mm 0.00 in0.0 mm 0.00 in0.0 mm
08:00 AM 33.9°F1.1°C 30.4°F-0.9°C 87% Calm Calm -- 29.91 in1012.9 mb 0.00 in0.0 mm 0.00 in0.0 mm 0.00 in0.0 mm
08:05 AM 33.9°F1.1°C 30.4°F-0.9°C 87% Calm Calm -- 29.91 in1012.9 mb 0.00 in0.0 mm 0.00 in0.0 mm 0.00 in0.0 mm
08:10 AM 34.2°F1.2°C 30.7°F-0.7°C 87% Calm Calm -- 29.92 in1013.2 mb 0.00 in0.0 mm 0.00 in0.0 mm 0.00 in0.0 mm
08:15 AM 34.0°F1.1°C 30.5°F-0.8°C 87% 2.0 mph SSE3.2 kmh SSE -- 29.92 in1013.2 mb 0.00 in0.0 mm 0.00 in0.0 mm 0.00 in0.0 mm
08:20 AM 34.3°F1.3°C 31.1°F-0.5°C 88% 1.0 mph SE1.6 kmh SE -- 29.92 in1013.2 mb 0.00 in0.0 mm 0.00 in0.0 mm 0.00 in0.0 mm
08:25 AM 34.5°F1.4°C 31.3°F-0.4°C 88% 2.0 mph SE3.2 kmh SE -- 29.92 in1013.2 mb 0.00 in0.0 mm 0.00 in0.0 mm 0.00 in0.0 mm
08:30 AM 34.6°F1.4°C 31.4°F-0.3°C 88% Calm Calm -- 29.93 in1013.5 mb 0.00 in0.0 mm 0.00 in0.0 mm 0.00 in0.0 mm
08:35 AM 34.8°F1.6°C 31.3°F-0.4°C 87% Calm Calm -- 29.93 in1013.5 mb 0.00 in0.0 mm 0.00 in0.0 mm 0.00 in0.0 mm
08:40 AM 34.9°F1.6°C 31.4°F-0.3°C 87% Calm Calm -- 29.92 in1013.2 mb 0.00 in0.0 mm 0.00 in0.0 mm 0.00 in0.0 mm
08:45 AM 34.9°F1.6°C 31.4°F-0.3°C 87% Calm Calm -- 29.92 in1013.2 mb 0.00 in0.0 mm 0.00 in0.0 mm 0.00 in0.0 mm
08:50 AM 35.0°F1.7°C 31.5°F-0.3°C 87% Calm Calm -- 29.93 in1013.5 mb 0.00 in0.0 mm 0.00 in0.0 mm 0.00 in0.0 mm
08:55 AM 35.2°F1.8°C 31.7°F-0.2°C 87% Calm Calm -- 29.93 in1013.5 mb 0.00 in0.0 mm 0.00 in0.0 mm 0.00 in0.0 mm
09:00 AM 35.3°F1.8°C 31.8°F-0.1°C 87% Calm Calm -- 29.92 in1013.2 mb 0.00 in0.0 mm 0.00 in0.0 mm 0.00 in0.0 mm
09:05 AM 35.4°F1.9°C 31.9°F-0.1°C 87% Calm Calm -- 29.92 in1013.2 mb 0.00 in0.0 mm 0.00 in0.0 mm 0.00 in0.0 mm
09:10 AM 35.4°F1.9°C 31.9°F-0.1°C 87% Calm Calm -- 29.92 in1013.2 mb 0.00 in0.0 mm 0.00 in0.0 mm 0.00 in0.0 mm
09:15 AM 35.5°F1.9°C 32.0°F0.0°C 87% Calm Calm -- 29.91 in1012.9 mb 0.00 in0.0 mm 0.00 in0.0 mm 0.00 in0.0 mm
09:20 AM 35.6°F2.0°C 32.1°F0.1°C 87% Calm Calm -- 29.90 in1012.5 mb 0.00 in0.0 mm 0.00 in0.0 mm 0.00 in0.0 mm
09:25 AM 35.9°F2.2°C 32.4°F0.2°C 87% Calm Calm -- 29.90 in1012.5 mb 0.00 in0.0 mm 0.00 in0.0 mm 0.00 in0.0 mm
09:30 AM 36.1°F2.3°C 32.6°F0.3°C 87% Calm Calm -- 29.90 in1012.5 mb 0.00 in0.0 mm 0.00 in0.0 mm 0.00 in0.0 mm
09:35 AM 36.2°F2.3°C 32.7°F0.4°C 87% Calm Calm -- 29.91 in1012.9 mb 0.00 in0.0 mm 0.00 in0.0 mm 0.00 in0.0 mm
09:40 AM 36.4°F2.4°C 32.9°F0.5°C 87% Calm Calm -- 29.91 in1012.9 mb 0.00 in0.0 mm 0.00 in0.0 mm 0.00 in0.0 mm
09:45 AM 36.3°F2.4°C 32.8°F0.4°C 87% Calm Calm -- 29.91 in1012.9 mb 0.00 in0.0 mm 0.00 in0.0 mm 0.00 in0.0 mm
09:50 AM 36.3°F2.4°C 32.8°F0.4°C 87% Calm Calm -- 29.91 in1012.9 mb 0.00 in0.0 mm 0.00 in0.0 mm 0.00 in0.0 mm
09:55 AM 36.3°F2.4°C 32.8°F0.4°C 87% Calm Calm -- 29.91 in1012.9 mb 0.00 in0.0 mm 0.00 in0.0 mm 0.00 in0.0 mm
10:00 AM 36.1°F2.3°C 32.3°F0.2°C 86% Calm Calm -- 29.91 in1012.9 mb 0.00 in0.0 mm 0.00 in0.0 mm 0.00 in0.0 mm
10:05 AM 36.1°F2.3°C 32.6°F0.3°C 87% Calm Calm -- 29.91 in1012.9 mb 0.00 in0.0 mm 0.00 in0.0 mm 0.00 in0.0 mm
10:10 AM 36.1°F2.3°C 32.6°F0.3°C 87% Calm Calm -- 29.90 in1012.5 mb 0.00 in0.0 mm 0.00 in0.0 mm 0.00 in0.0 mm
10:15 AM 36.4°F2.4°C 32.9°F0.5°C 87% Calm Calm -- 29.90 in1012.5 mb 0.00 in0.0 mm 0.00 in0.0 mm 0.00 in0.0 mm
10:20 AM 36.5°F2.5°C 33.0°F0.6°C 87% 2.0 mph NE3.2 kmh NE 4.0 mph6.4 kmh 29.90 in1012.5 mb 0.00 in0.0 mm 0.00 in0.0 mm 0.00 in0.0 mm
10:25 AM 36.6°F2.6°C 33.1°F0.6°C 87% Calm Calm 4.0 mph6.4 kmh 29.90 in1012.5 mb 0.00 in0.0 mm 0.00 in0.0 mm 0.00 in0.0 mm
10:30 AM 36.7°F2.6°C 33.2°F0.7°C 87% Calm Calm -- 29.92 in1013.2 mb 0.00 in0.0 mm 0.00 in0.0 mm 0.00 in0.0 mm
10:35 AM 36.7°F2.6°C 32.9°F0.5°C 86% Calm Calm -- 29.93 in1013.5 mb 0.00 in0.0 mm 0.00 in0.0 mm 0.00 in0.0 mm
10:40 AM 36.6°F2.6°C 32.8°F0.4°C 86% Calm Calm -- 29.93 in1013.5 mb 0.00 in0.0 mm 0.00 in0.0 mm 0.00 in0.0 mm
10:45 AM 36.5°F2.5°C 32.7°F0.4°C 86% Calm Calm -- 29.93 in1013.5 mb 0.00 in0.0 mm 0.00 in0.0 mm 0.00 in0.0 mm
10:50 AM 36.5°F2.5°C 32.7°F0.4°C 86% Calm Calm -- 29.94 in1013.9 mb 0.00 in0.0 mm 0.00 in0.0 mm 0.00 in0.0 mm
10:55 AM 36.6°F2.6°C 32.8°F0.4°C 86% Calm Calm -- 29.94 in1013.9 mb 0.00 in0.0 mm 0.00 in0.0 mm 0.00 in0.0 mm
11:00 AM 36.6°F2.6°C 32.8°F0.4°C 86% Calm Calm -- 29.93 in1013.5 mb 0.00 in0.0 mm 0.00 in0.0 mm 0.00 in0.0 mm
11:05 AM 36.5°F2.5°C 32.7°F0.4°C 86% Calm Calm -- 29.93 in1013.5 mb 0.00 in0.0 mm 0.00 in0.0 mm 0.00 in0.0 mm
11:10 AM 36.5°F2.5°C 32.7°F0.4°C 86% Calm Calm -- 29.93 in1013.5 mb 0.00 in0.0 mm 0.00 in0.0 mm 0.00 in0.0 mm
11:15 AM 36.4°F2.4°C 32.6°F0.3°C 86% Calm Calm -- 29.94 in1013.9 mb 0.00 in0.0 mm 0.00 in0.0 mm 0.00 in0.0 mm
11:20 AM 36.5°F2.5°C 32.7°F0.4°C 86% Calm Calm -- 29.94 in1013.9 mb 0.00 in0.0 mm 0.00 in0.0 mm 0.00 in0.0 mm
11:25 AM 36.6°F2.6°C 32.8°F0.4°C 86% Calm Calm -- 29.94 in1013.9 mb 0.00 in0.0 mm 0.00 in0.0 mm 0.00 in0.0 mm
11:30 AM 36.8°F2.7°C 33.3°F0.7°C 87% Calm Calm -- 29.94 in1013.9 mb 0.00 in0.0 mm 0.00 in0.0 mm 0.00 in0.0 mm
11:35 AM 36.9°F2.7°C 33.1°F0.6°C 86% Calm Calm -- 29.94 in1013.9 mb 0.00 in0.0 mm 0.00 in0.0 mm 0.00 in0.0 mm
11:40 AM 37.0°F2.8°C 33.2°F0.7°C 86% Calm Calm -- 29.94 in1013.9 mb 0.00 in0.0 mm 0.00 in0.0 mm 0.00 in0.0 mm
11:45 AM 37.0°F2.8°C 33.2°F0.7°C 86% Calm Calm -- 29.94 in1013.9 mb 0.00 in0.0 mm 0.00 in0.0 mm 0.00 in0.0 mm
11:50 AM 37.1°F2.8°C 33.3°F0.7°C 86% Calm Calm -- 29.94 in1013.9 mb 0.00 in0.0 mm 0.00 in0.0 mm 0.00 in0.0 mm
11:55 AM 37.2°F2.9°C 33.4°F0.8°C 86% Calm Calm -- 29.94 in1013.9 mb 0.00 in0.0 mm 0.00 in0.0 mm 0.00 in0.0 mm
12:00 PM 37.3°F2.9°C 33.5°F0.8°C 86% Calm Calm -- 29.94 in1013.9 mb 0.00 in0.0 mm 0.00 in0.0 mm 0.00 in0.0 mm
12:05 PM 37.4°F3.0°C 33.6°F0.9°C 86% Calm Calm -- 29.94 in1013.9 mb 0.00 in0.0 mm 0.00 in0.0 mm 0.00 in0.0 mm
12:10 PM 37.5°F3.1°C 33.7°F0.9°C 86% Calm Calm -- 29.93 in1013.5 mb 0.00 in0.0 mm 0.00 in0.0 mm 0.00 in0.0 mm
12:15 PM 37.6°F3.1°C 33.8°F1.0°C 86% Calm Calm -- 29.93 in1013.5 mb 0.00 in0.0 mm 0.00 in0.0 mm 0.00 in0.0 mm
12:20 PM 37.7°F3.2°C 33.9°F1.1°C 86% Calm Calm -- 29.93 in1013.5 mb 0.00 in0.0 mm 0.00 in0.0 mm 0.00 in0.0 mm
12:25 PM 37.7°F3.2°C 33.9°F1.1°C 86% 5.0 mph NE8.0 kmh NE -- 29.93 in1013.5 mb 0.00 in0.0 mm 0.00 in0.0 mm 0.00 in0.0 mm
12:30 PM 37.6°F3.1°C 33.8°F1.0°C 86% Calm Calm -- 29.93 in1013.5 mb 0.00 in0.0 mm 0.00 in0.0 mm 0.00 in0.0 mm
12:35 PM 37.6°F3.1°C 33.8°F1.0°C 86% Calm Calm -- 29.93 in1013.5 mb 0.00 in0.0 mm 0.00 in0.0 mm 0.00 in0.0 mm
12:40 PM 37.7°F3.2°C 33.9°F1.1°C 86% Calm Calm -- 29.91 in1012.9 mb 0.00 in0.0 mm 0.00 in0.0 mm 0.00 in0.0 mm
12:45 PM 37.8°F3.2°C 34.0°F1.1°C 86% Calm Calm -- 29.91 in1012.9 mb 0.00 in0.0 mm 0.00 in0.0 mm 0.00 in0.0 mm
12:50 PM 37.9°F3.3°C 34.1°F1.2°C 86% Calm Calm 4.0 mph6.4 kmh 29.90 in1012.5 mb 0.00 in0.0 mm 0.00 in0.0 mm 0.00 in0.0 mm
12:55 PM 38.0°F3.3°C 34.2°F1.2°C 86% 1.0 mph ENE1.6 kmh ENE 4.0 mph6.4 kmh 29.89 in1012.2 mb 0.00 in0.0 mm 0.00 in0.0 mm 0.00 in0.0 mm
01:00 PM 38.1°F3.4°C 34.6°F1.4°C 87% 1.0 mph NE1.6 kmh NE -- 29.89 in1012.2 mb 0.00 in0.0 mm 0.00 in0.0 mm 0.00 in0.0 mm
01:05 PM 38.1°F3.4°C 34.6°F1.4°C 87% Calm Calm -- 29.89 in1012.2 mb 0.00 in0.0 mm 0.00 in0.0 mm 0.00 in0.0 mm
01:10 PM 38.2°F3.4°C 34.7°F1.5°C 87% Calm Calm -- 29.89 in1012.2 mb 0.00 in0.0 mm 0.00 in0.0 mm 0.00 in0.0 mm
01:15 PM 38.2°F3.4°C 34.7°F1.5°C 87% 4.0 mph NE6.4 kmh NE -- 29.89 in1012.2 mb 0.00 in0.0 mm 0.00 in0.0 mm 0.00 in0.0 mm
01:20 PM 38.1°F3.4°C 34.6°F1.4°C 87% 2.0 mph NE3.2 kmh NE -- 29.88 in1011.9 mb 0.00 in0.0 mm 0.00 in0.0 mm 0.00 in0.0 mm
01:25 PM 38.0°F3.3°C 34.5°F1.4°C 87% 2.0 mph NE3.2 kmh NE -- 29.88 in1011.9 mb 0.00 in0.0 mm 0.00 in0.0 mm 0.00 in0.0 mm
01:30 PM 38.1°F3.4°C 34.6°F1.4°C 87% 7.0 mph NE11.3 kmh NE -- 29.88 in1011.9 mb 0.00 in0.0 mm 0.00 in0.0 mm 0.00 in0.0 mm
01:35 PM 38.2°F3.4°C 34.7°F1.5°C 87% 3.0 mph NE4.8 kmh NE -- 29.87 in1011.5 mb 0.00 in0.0 mm 0.00 in0.0 mm 0.00 in0.0 mm
01:40 PM 38.4°F3.6°C 34.9°F1.6°C 87% Calm Calm 9.0 mph14.5 kmh 29.87 in1011.5 mb 0.00 in0.0 mm 0.00 in0.0 mm 0.00 in0.0 mm
01:45 PM 38.4°F3.6°C 34.6°F1.4°C 86% Calm Calm 9.0 mph14.5 kmh 29.87 in1011.5 mb 0.00 in0.0 mm 0.00 in0.0 mm 0.00 in0.0 mm
01:50 PM 38.4°F3.6°C 34.6°F1.4°C 86% 3.0 mph NE4.8 kmh NE -- 29.86 in1011.2 mb 0.00 in0.0 mm 0.00 in0.0 mm 0.00 in0.0 mm
01:55 PM 38.4°F3.6°C 34.6°F1.4°C 86% Calm Calm -- 29.87 in1011.5 mb 0.00 in0.0 mm 0.00 in0.0 mm 0.00 in0.0 mm
02:00 PM 38.6°F3.7°C 34.8°F1.6°C 86% 1.0 mph ENE1.6 kmh ENE -- 29.86 in1011.2 mb 0.00 in0.0 mm 0.00 in0.0 mm 0.00 in0.0 mm
02:05 PM 38.6°F3.7°C 34.8°F1.6°C 86% 1.0 mph E1.6 kmh E -- 29.85 in1010.8 mb 0.00 in0.0 mm 0.00 in0.0 mm 0.00 in0.0 mm
02:10 PM 38.8°F3.8°C 34.7°F1.5°C 85% 4.0 mph NE6.4 kmh NE -- 29.86 in1011.2 mb 0.00 in0.0 mm 0.00 in0.0 mm 0.00 in0.0 mm
02:15 PM 38.8°F3.8°C 34.7°F1.5°C 85% 4.0 mph NE6.4 kmh NE -- 29.86 in1011.2 mb 0.00 in0.0 mm 0.00 in0.0 mm 0.00 in0.0 mm
02:20 PM 38.8°F3.8°C 34.7°F1.5°C 85% 4.0 mph NE6.4 kmh NE -- 29.86 in1011.2 mb 0.00 in0.0 mm 0.00 in0.0 mm 0.00 in0.0 mm
02:25 PM 38.7°F3.7°C 34.3°F1.3°C 84% 4.0 mph NE6.4 kmh NE -- 29.86 in1011.2 mb 0.00 in0.0 mm 0.00 in0.0 mm 0.00 in0.0 mm
02:30 PM 38.6°F3.7°C 34.2°F1.2°C 84% Calm Calm 10.0 mph16.1 kmh 29.85 in1010.8 mb 0.00 in0.0 mm 0.00 in0.0 mm 0.00 in0.0 mm
02:35 PM 38.6°F3.7°C 34.2°F1.2°C 84% 1.0 mph NE1.6 kmh NE 10.0 mph16.1 kmh 29.85 in1010.8 mb 0.00 in0.0 mm 0.00 in0.0 mm 0.00 in0.0 mm
02:40 PM 38.8°F3.8°C 34.4°F1.3°C 84% Calm Calm -- 29.86 in1011.2 mb 0.00 in0.0 mm 0.00 in0.0 mm 0.00 in0.0 mm
02:45 PM 38.8°F3.8°C 34.1°F1.2°C 83% Calm Calm -- 29.86 in1011.2 mb 0.00 in0.0 mm 0.00 in0.0 mm 0.00 in0.0 mm
02:50 PM 38.8°F3.8°C 34.1°F1.2°C 83% 6.0 mph NE9.7 kmh NE -- 29.86 in1011.2 mb 0.00 in0.0 mm 0.00 in0.0 mm 0.00 in0.0 mm
02:55 PM 38.7°F3.7°C 34.0°F1.1°C 83% 7.0 mph NE11.3 kmh NE -- 29.86 in1011.2 mb 0.00 in0.0 mm 0.00 in0.0 mm 0.00 in0.0 mm
03:00 PM 38.7°F3.7°C 33.7°F0.9°C 82% 2.0 mph E3.2 kmh E -- 29.86 in1011.2 mb 0.00 in0.0 mm 0.00 in0.0 mm 0.00 in0.0 mm
03:05 PM 38.6°F3.7°C 33.6°F0.9°C 82% 2.0 mph ENE3.2 kmh ENE -- 29.85 in1010.8 mb 0.00 in0.0 mm 0.00 in0.0 mm 0.00 in0.0 mm
03:10 PM 38.6°F3.7°C 33.6°F0.9°C 82% 2.0 mph NE3.2 kmh NE -- 29.86 in1011.2 mb 0.00 in0.0 mm 0.00 in0.0 mm 0.00 in0.0 mm
03:15 PM 38.6°F3.7°C 33.6°F0.9°C 82% 4.0 mph E6.4 kmh E -- 29.85 in1010.8 mb 0.00 in0.0 mm 0.00 in0.0 mm 0.00 in0.0 mm
03:20 PM 38.6°F3.7°C 33.6°F0.9°C 82% 4.0 mph NE6.4 kmh NE 10.0 mph16.1 kmh 29.85 in1010.8 mb 0.00 in0.0 mm 0.00 in0.0 mm 0.00 in0.0 mm
03:25 PM 38.5°F3.6°C 33.5°F0.8°C 82% 3.0 mph NE4.8 kmh NE 10.0 mph16.1 kmh 29.86 in1011.2 mb 0.00 in0.0 mm 0.00 in0.0 mm 0.00 in0.0 mm
03:30 PM 38.5°F3.6°C 33.5°F0.8°C 82% Calm Calm -- 29.86 in1011.2 mb 0.00 in0.0 mm 0.00 in0.0 mm 0.00 in0.0 mm
03:35 PM 38.5°F3.6°C 33.5°F0.8°C 82% 3.0 mph NE4.8 kmh NE -- 29.86 in1011.2 mb 0.00 in0.0 mm 0.00 in0.0 mm 0.00 in0.0 mm
03:40 PM 38.5°F3.6°C 33.5°F0.8°C 82% 5.0 mph NE8.0 kmh NE -- 29.86 in1011.2 mb 0.00 in0.0 mm 0.00 in0.0 mm 0.00 in0.0 mm
03:45 PM 38.6°F3.7°C 33.6°F0.9°C 82% 3.0 mph ENE4.8 kmh ENE -- 29.87 in1011.5 mb 0.00 in0.0 mm 0.00 in0.0 mm 0.00 in0.0 mm
03:50 PM 38.6°F3.7°C 33.6°F0.9°C 82% 1.0 mph E1.6 kmh E -- 29.87 in1011.5 mb 0.00 in0.0 mm 0.00 in0.0 mm 0.00 in0.0 mm
03:55 PM 38.6°F3.7°C 33.6°F0.9°C 82% 1.0 mph ENE1.6 kmh ENE -- 29.87 in1011.5 mb 0.00 in0.0 mm 0.00 in0.0 mm 0.00 in0.0 mm
04:00 PM 38.6°F3.7°C 33.6°F0.9°C 82% 1.0 mph NE1.6 kmh NE -- 29.86 in1011.2 mb 0.00 in0.0 mm 0.00 in0.0 mm 0.00 in0.0 mm
04:05 PM 38.5°F3.6°C 33.2°F0.7°C 81% 5.0 mph NE8.0 kmh NE -- 29.87 in1011.5 mb 0.00 in0.0 mm 0.00 in0.0 mm 0.00 in0.0 mm
04:10 PM 38.4°F3.6°C 33.4°F0.8°C 82% 5.0 mph S8.0 kmh S 9.0 mph14.5 kmh 29.87 in1011.5 mb 0.00 in0.0 mm 0.00 in0.0 mm 0.00 in0.0 mm
04:15 PM 38.4°F3.6°C 33.4°F0.8°C 82% 2.0 mph ESE3.2 kmh ESE 9.0 mph14.5 kmh 29.87 in1011.5 mb 0.00 in0.0 mm 0.00 in0.0 mm 0.00 in0.0 mm
04:20 PM 38.2°F3.4°C 33.2°F0.7°C 82% 2.0 mph E3.2 kmh E -- 29.88 in1011.9 mb 0.00 in0.0 mm 0.00 in0.0 mm 0.00 in0.0 mm
04:25 PM 38.1°F3.4°C 33.1°F0.6°C 82% 3.0 mph ENE4.8 kmh ENE -- 29.88 in1011.9 mb 0.00 in0.0 mm 0.00 in0.0 mm 0.00 in0.0 mm
04:30 PM 37.9°F3.3°C 33.2°F0.7°C 83% 1.0 mph ENE1.6 kmh ENE -- 29.88 in1011.9 mb 0.00 in0.0 mm 0.00 in0.0 mm 0.00 in0.0 mm
04:35 PM 37.8°F3.2°C 33.1°F0.6°C 83% Calm Calm -- 29.88 in1011.9 mb 0.00 in0.0 mm 0.00 in0.0 mm 0.00 in0.0 mm
04:40 PM 37.7°F3.2°C 33.0°F0.6°C 83% Calm Calm -- 29.87 in1011.5 mb 0.00 in0.0 mm 0.00 in0.0 mm 0.00 in0.0 mm
04:45 PM 37.5°F3.1°C 32.8°F0.4°C 83% Calm Calm -- 29.88 in1011.9 mb 0.00 in0.0 mm 0.00 in0.0 mm 0.00 in0.0 mm
04:50 PM 37.4°F3.0°C 33.0°F0.6°C 84% 2.0 mph E3.2 kmh E -- 29.87 in1011.5 mb 0.00 in0.0 mm 0.00 in0.0 mm 0.00 in0.0 mm
04:55 PM 37.2°F2.9°C 32.8°F0.4°C 84% 6.0 mph NE9.7 kmh NE -- 29.87 in1011.5 mb 0.00 in0.0 mm 0.00 in0.0 mm 0.00 in0.0 mm
05:00 PM 37.0°F2.8°C 32.9°F0.5°C 85% 5.0 mph E8.0 kmh E 9.0 mph14.5 kmh 29.88 in1011.9 mb 0.00 in0.0 mm 0.00 in0.0 mm 0.00 in0.0 mm
05:05 PM 36.8°F2.7°C 32.7°F0.4°C 85% 2.0 mph NE3.2 kmh NE 9.0 mph14.5 kmh 29.88 in1011.9 mb 0.00 in0.0 mm 0.00 in0.0 mm 0.00 in0.0 mm
05:10 PM 36.5°F2.5°C 32.7°F0.4°C 86% 1.0 mph ESE1.6 kmh ESE -- 29.88 in1011.9 mb 0.00 in0.0 mm 0.00 in0.0 mm 0.00 in0.0 mm
05:15 PM 36.3°F2.4°C 32.5°F0.3°C 86% 2.0 mph E3.2 kmh E -- 29.89 in1012.2 mb 0.00 in0.0 mm 0.00 in0.0 mm 0.00 in0.0 mm
05:20 PM 36.1°F2.3°C 32.6°F0.3°C 87% Calm Calm -- 29.88 in1011.9 mb 0.00 in0.0 mm 0.00 in0.0 mm 0.00 in0.0 mm
05:25 PM 36.0°F2.2°C 32.5°F0.3°C 87% Calm Calm -- 29.89 in1012.2 mb 0.00 in0.0 mm 0.00 in0.0 mm 0.00 in0.0 mm
05:30 PM 35.8°F2.1°C 32.3°F0.2°C 87% Calm Calm -- 29.89 in1012.2 mb 0.00 in0.0 mm 0.00 in0.0 mm 0.00 in0.0 mm
05:35 PM 35.6°F2.0°C 32.4°F0.2°C 88% Calm Calm -- 29.89 in1012.2 mb 0.00 in0.0 mm 0.00 in0.0 mm 0.00 in0.0 mm
05:40 PM 35.4°F1.9°C 32.2°F0.1°C 88% 1.0 mph NE1.6 kmh NE -- 29.89 in1012.2 mb 0.00 in0.0 mm 0.00 in0.0 mm 0.00 in0.0 mm
05:45 PM 35.1°F1.7°C 31.9°F-0.1°C 88% 4.0 mph ENE6.4 kmh ENE -- 29.89 in1012.2 mb 0.00 in0.0 mm 0.00 in0.0 mm 0.00 in0.0 mm
05:50 PM 35.0°F1.7°C 31.8°F-0.1°C 88% 3.0 mph NE4.8 kmh NE 11.0 mph17.7 kmh 29.89 in1012.2 mb 0.00 in0.0 mm 0.00 in0.0 mm 0.00 in0.0 mm
05:55 PM 34.8°F1.6°C 31.6°F-0.2°C 88% 1.0 mph ENE1.6 kmh ENE 11.0 mph17.7 kmh 29.89 in1012.2 mb 0.00 in0.0 mm 0.00 in0.0 mm 0.00 in0.0 mm
06:00 PM 34.7°F1.5°C 31.5°F-0.3°C 88% 2.0 mph NNE3.2 kmh NNE -- 29.89 in1012.2 mb 0.00 in0.0 mm 0.00 in0.0 mm 0.00 in0.0 mm
06:05 PM 34.5°F1.4°C 31.3°F-0.4°C 88% 3.0 mph E4.8 kmh E -- 29.88 in1011.9 mb 0.00 in0.0 mm 0.00 in0.0 mm 0.00 in0.0 mm
06:10 PM 34.4°F1.3°C 31.5°F-0.3°C 89% 3.0 mph NE4.8 kmh NE -- 29.88 in1011.9 mb 0.00 in0.0 mm 0.00 in0.0 mm 0.00 in0.0 mm
06:15 PM 34.3°F1.3°C 31.1°F-0.5°C 88% Calm Calm -- 29.89 in1012.2 mb 0.00 in0.0 mm 0.00 in0.0 mm 0.00 in0.0 mm
06:20 PM 34.2°F1.2°C 31.0°F-0.6°C 88% Calm Calm -- 29.89 in1012.2 mb 0.01 in0.3 mm 0.12 in3.0 mm 0.01 in0.3 mm
06:25 PM 34.1°F1.2°C 30.9°F-0.6°C 88% Calm Calm -- 29.89 in1012.2 mb 0.01 in0.3 mm 0.00 in0.0 mm 0.01 in0.3 mm
06:30 PM 33.9°F1.1°C 31.0°F-0.6°C 89% Calm Calm -- 29.89 in1012.2 mb 0.01 in0.3 mm 0.00 in0.0 mm 0.01 in0.3 mm
06:35 PM 33.8°F1.0°C 30.9°F-0.6°C 89% Calm Calm -- 29.90 in1012.5 mb 0.01 in0.3 mm 0.00 in0.0 mm 0.01 in0.3 mm
06:40 PM 33.6°F0.9°C 30.4°F-0.9°C 88% 1.0 mph NE1.6 kmh NE 7.0 mph11.3 kmh 29.90 in1012.5 mb 0.02 in0.5 mm 0.12 in3.0 mm 0.02 in0.5 mm
06:45 PM 33.4°F0.8°C 30.2°F-1.0°C 88% 2.0 mph E3.2 kmh E 7.0 mph11.3 kmh 29.90 in1012.5 mb 0.02 in0.5 mm 0.00 in0.0 mm 0.02 in0.5 mm
06:50 PM 33.3°F0.7°C 30.1°F-1.1°C 88% 2.0 mph E3.2 kmh E -- 29.89 in1012.2 mb 0.02 in0.5 mm 0.00 in0.0 mm 0.02 in0.5 mm
06:55 PM 33.2°F0.7°C 30.3°F-0.9°C 89% 4.0 mph NE6.4 kmh NE -- 29.89 in1012.2 mb 0.02 in0.5 mm 0.00 in0.0 mm 0.02 in0.5 mm
07:00 PM 33.2°F0.7°C 30.0°F-1.1°C 88% 1.0 mph E1.6 kmh E -- 29.89 in1012.2 mb 0.03 in0.8 mm 0.01 in0.3 mm 0.03 in0.8 mm
07:05 PM 33.1°F0.6°C 30.2°F-1.0°C 89% 2.0 mph NE3.2 kmh NE -- 29.89 in1012.2 mb 0.03 in0.8 mm 0.00 in0.0 mm 0.03 in0.8 mm
07:10 PM 33.0°F0.6°C 29.8°F-1.2°C 88% 2.0 mph ENE3.2 kmh ENE -- 29.89 in1012.2 mb 0.03 in0.8 mm 0.00 in0.0 mm 0.03 in0.8 mm
07:15 PM 33.0°F0.6°C 29.8°F-1.2°C 88% Calm Calm -- 29.89 in1012.2 mb 0.03 in0.8 mm 0.00 in0.0 mm 0.03 in0.8 mm
07:20 PM 32.9°F0.5°C 29.7°F-1.3°C 88% 3.0 mph E4.8 kmh E -- 29.89 in1012.2 mb 0.02 in0.5 mm 0.00 in0.0 mm 0.03 in0.8 mm
07:25 PM 32.9°F0.5°C 29.7°F-1.3°C 88% 3.0 mph NE4.8 kmh NE -- 29.89 in1012.2 mb 0.03 in0.8 mm 0.12 in3.0 mm 0.04 in1.0 mm
07:30 PM 32.9°F0.5°C 29.7°F-1.3°C 88% 1.0 mph E1.6 kmh E 6.0 mph9.7 kmh 29.89 in1012.2 mb 0.03 in0.8 mm 0.00 in0.0 mm 0.04 in1.0 mm
07:35 PM 32.9°F0.5°C 29.7°F-1.3°C 88% 4.0 mph NE6.4 kmh NE 6.0 mph9.7 kmh 29.89 in1012.2 mb 0.03 in0.8 mm 0.00 in0.0 mm 0.04 in1.0 mm
07:40 PM 32.9°F0.5°C 29.7°F-1.3°C 88% 1.0 mph NE1.6 kmh NE -- 29.89 in1012.2 mb 0.02 in0.5 mm 0.00 in0.0 mm 0.04 in1.0 mm
07:45 PM 32.9°F0.5°C 29.7°F-1.3°C 88% 3.0 mph NE4.8 kmh NE -- 29.89 in1012.2 mb 0.02 in0.5 mm 0.00 in0.0 mm 0.04 in1.0 mm
07:50 PM 32.9°F0.5°C 29.7°F-1.3°C 88% 2.0 mph ESE3.2 kmh ESE -- 29.88 in1011.9 mb 0.02 in0.5 mm 0.00 in0.0 mm 0.04 in1.0 mm
07:55 PM 32.9°F0.5°C 29.7°F-1.3°C 88% Calm Calm -- 29.89 in1012.2 mb 0.02 in0.5 mm 0.00 in0.0 mm 0.04 in1.0 mm
08:00 PM 32.9°F0.5°C 29.7°F-1.3°C 88% Calm Calm -- 29.88 in1011.9 mb 0.01 in0.3 mm 0.00 in0.0 mm 0.04 in1.0 mm
08:05 PM 32.9°F0.5°C 29.7°F-1.3°C 88% Calm Calm -- 29.88 in1011.9 mb 0.01 in0.3 mm 0.00 in0.0 mm 0.04 in1.0 mm
08:10 PM 32.9°F0.5°C 29.7°F-1.3°C 88% Calm Calm -- 29.88 in1011.9 mb 0.01 in0.3 mm 0.00 in0.0 mm 0.04 in1.0 mm
08:15 PM 32.9°F0.5°C 29.7°F-1.3°C 88% 3.0 mph NE4.8 kmh NE -- 29.87 in1011.5 mb 0.02 in0.5 mm 0.12 in3.0 mm 0.05 in1.3 mm
08:20 PM 32.9°F0.5°C 29.7°F-1.3°C 88% 5.0 mph E8.0 kmh E 8.0 mph12.9 kmh 29.88 in1011.9 mb 0.02 in0.5 mm 0.00 in0.0 mm 0.05 in1.3 mm
08:25 PM 32.9°F0.5°C 29.7°F-1.3°C 88% 4.0 mph E6.4 kmh E 8.0 mph12.9 kmh 29.88 in1011.9 mb 0.01 in0.3 mm 0.00 in0.0 mm 0.05 in1.3 mm
08:30 PM 32.9°F0.5°C 29.7°F-1.3°C 88% 4.0 mph ESE6.4 kmh ESE -- 29.87 in1011.5 mb 0.01 in0.3 mm 0.00 in0.0 mm 0.05 in1.3 mm
08:35 PM 32.9°F0.5°C 29.7°F-1.3°C 88% Calm Calm -- 29.87 in1011.5 mb 0.01 in0.3 mm 0.00 in0.0 mm 0.05 in1.3 mm
08:40 PM 32.9°F0.5°C 29.7°F-1.3°C 88% Calm Calm -- 29.87 in1011.5 mb 0.01 in0.3 mm 0.00 in0.0 mm 0.05 in1.3 mm
08:45 PM 32.9°F0.5°C 29.7°F-1.3°C 88% Calm Calm -- 29.87 in1011.5 mb 0.02 in0.5 mm 0.12 in3.0 mm 0.06 in1.5 mm
08:50 PM 32.9°F0.5°C 29.7°F-1.3°C 88% Calm Calm -- 29.86 in1011.2 mb 0.02 in0.5 mm 0.00 in0.0 mm 0.06 in1.5 mm
08:55 PM 32.9°F0.5°C 29.7°F-1.3°C 88% Calm Calm -- 29.87 in1011.5 mb 0.02 in0.5 mm 0.00 in0.0 mm 0.06 in1.5 mm
09:00 PM 32.9°F0.5°C 29.7°F-1.3°C 88% Calm Calm -- 29.87 in1011.5 mb 0.02 in0.5 mm 0.00 in0.0 mm 0.06 in1.5 mm
09:05 PM 32.9°F0.5°C 29.7°F-1.3°C 88% Calm Calm -- 29.87 in1011.5 mb 0.02 in0.5 mm 0.00 in0.0 mm 0.06 in1.5 mm
09:10 PM 32.9°F0.5°C 29.7°F-1.3°C 88% Calm Calm 1.0 mph1.6 kmh 29.87 in1011.5 mb 0.02 in0.5 mm 0.00 in0.0 mm 0.06 in1.5 mm
09:15 PM 33.0°F0.6°C 29.8°F-1.2°C 88% Calm Calm 1.0 mph1.6 kmh 29.87 in1011.5 mb 0.01 in0.3 mm 0.00 in0.0 mm 0.06 in1.5 mm
09:20 PM 33.0°F0.6°C 29.8°F-1.2°C 88% Calm Calm -- 29.87 in1011.5 mb 0.01 in0.3 mm 0.00 in0.0 mm 0.06 in1.5 mm
09:25 PM 33.0°F0.6°C 29.8°F-1.2°C 88% Calm Calm -- 29.86 in1011.2 mb 0.01 in0.3 mm 0.00 in0.0 mm 0.06 in1.5 mm
09:30 PM 33.0°F0.6°C 29.8°F-1.2°C 88% Calm Calm -- 29.87 in1011.5 mb 0.02 in0.5 mm 0.12 in3.0 mm 0.07 in1.8 mm
09:35 PM 33.0°F0.6°C 29.8°F-1.2°C 88% Calm Calm -- 29.86 in1011.2 mb 0.02 in0.5 mm 0.00 in0.0 mm 0.07 in1.8 mm
09:40 PM 33.0°F0.6°C 29.8°F-1.2°C 88% Calm Calm -- 29.86 in1011.2 mb 0.02 in0.5 mm 0.00 in0.0 mm 0.07 in1.8 mm
09:45 PM 33.0°F0.6°C 29.8°F-1.2°C 88% Calm Calm -- 29.86 in1011.2 mb 0.01 in0.3 mm 0.00 in0.0 mm 0.07 in1.8 mm
09:50 PM 33.0°F0.6°C 29.8°F-1.2°C 88% Calm Calm -- 29.86 in1011.2 mb 0.01 in0.3 mm 0.00 in0.0 mm 0.07 in1.8 mm
09:55 PM 33.0°F0.6°C 29.8°F-1.2°C 88% 8.0 mph NE12.9 kmh NE -- 29.86 in1011.2 mb 0.01 in0.3 mm 0.00 in0.0 mm 0.07 in1.8 mm
10:00 PM 33.1°F0.6°C 29.9°F-1.2°C 88% 2.0 mph E3.2 kmh E 10.0 mph16.1 kmh 29.86 in1011.2 mb 0.01 in0.3 mm 0.00 in0.0 mm 0.07 in1.8 mm
10:05 PM 33.1°F0.6°C 29.9°F-1.2°C 88% Calm Calm 10.0 mph16.1 kmh 29.87 in1011.5 mb 0.01 in0.3 mm 0.00 in0.0 mm 0.07 in1.8 mm
10:10 PM 33.1°F0.6°C 29.9°F-1.2°C 88% Calm Calm -- 29.86 in1011.2 mb 0.01 in0.3 mm 0.00 in0.0 mm 0.07 in1.8 mm
10:15 PM 33.2°F0.7°C 30.0°F-1.1°C 88% Calm Calm -- 29.87 in1011.5 mb 0.01 in0.3 mm 0.00 in0.0 mm 0.07 in1.8 mm
10:20 PM 33.2°F0.7°C 30.0°F-1.1°C 88% Calm Calm -- 29.86 in1011.2 mb 0.01 in0.3 mm 0.00 in0.0 mm 0.07 in1.8 mm
10:25 PM 33.2°F0.7°C 30.0°F-1.1°C 88% Calm Calm -- 29.87 in1011.5 mb 0.01 in0.3 mm 0.00 in0.0 mm 0.07 in1.8 mm
10:30 PM 33.2°F0.7°C 30.0°F-1.1°C 88% Calm Calm -- 29.86 in1011.2 mb 0.00 in0.0 mm 0.00 in0.0 mm 0.07 in1.8 mm
10:35 PM 33.2°F0.7°C 30.0°F-1.1°C 88% Calm Calm -- 29.87 in1011.5 mb 0.00 in0.0 mm 0.00 in0.0 mm 0.07 in1.8 mm
10:40 PM 33.2°F0.7°C 30.0°F-1.1°C 88% Calm Calm -- 29.87 in1011.5 mb 0.00 in0.0 mm 0.00 in0.0 mm 0.07 in1.8 mm
10:45 PM 33.2°F0.7°C 30.0°F-1.1°C 88% Calm Calm -- 29.87 in1011.5 mb 0.00 in0.0 mm 0.00 in0.0 mm 0.07 in1.8 mm
10:50 PM 33.2°F0.7°C 30.3°F-0.9°C 89% Calm Calm 1.0 mph1.6 kmh 29.86 in1011.2 mb 0.00 in0.0 mm 0.00 in0.0 mm 0.07 in1.8 mm
10:55 PM 33.2°F0.7°C 30.3°F-0.9°C 89% Calm Calm 1.0 mph1.6 kmh 29.86 in1011.2 mb 0.00 in0.0 mm 0.00 in0.0 mm 0.07 in1.8 mm
11:00 PM 33.2°F0.7°C 30.3°F-0.9°C 89% Calm Calm -- 29.86 in1011.2 mb 0.00 in0.0 mm 0.00 in0.0 mm 0.07 in1.8 mm
11:05 PM 33.2°F0.7°C 30.3°F-0.9°C 89% Calm Calm -- 29.87 in1011.5 mb 0.00 in0.0 mm 0.00 in0.0 mm 0.07 in1.8 mm
11:10 PM 33.2°F0.7°C 30.3°F-0.9°C 89% Calm Calm -- 29.86 in1011.2 mb 0.00 in0.0 mm 0.00 in0.0 mm 0.07 in1.8 mm
11:15 PM 33.3°F0.7°C 30.4°F-0.9°C 89% Calm Calm -- 29.86 in1011.2 mb 0.00 in0.0 mm 0.00 in0.0 mm 0.07 in1.8 mm
11:20 PM 33.3°F0.7°C 30.4°F-0.9°C 89% Calm Calm -- 29.86 in1011.2 mb 0.00 in0.0 mm 0.00 in0.0 mm 0.07 in1.8 mm
11:25 PM 33.3°F0.7°C 30.4°F-0.9°C 89% Calm Calm -- 29.86 in1011.2 mb 0.00 in0.0 mm 0.00 in0.0 mm 0.07 in1.8 mm
11:30 PM 33.3°F0.7°C 30.4°F-0.9°C 89% Calm Calm -- 29.86 in1011.2 mb 0.00 in0.0 mm 0.00 in0.0 mm 0.07 in1.8 mm
11:35 PM 33.3°F0.7°C 30.4°F-0.9°C 89% Calm Calm -- 29.86 in1011.2 mb 0.00 in0.0 mm 0.00 in0.0 mm 0.07 in1.8 mm
11:40 PM 33.3°F0.7°C 30.4°F-0.9°C 89% Calm Calm 1.0 mph1.6 kmh 29.86 in1011.2 mb 0.00 in0.0 mm 0.00 in0.0 mm 0.07 in1.8 mm
11:45 PM 33.3°F0.7°C 30.4°F-0.9°C 89% Calm Calm 1.0 mph1.6 kmh 29.87 in1011.5 mb 0.00 in0.0 mm 0.00 in0.0 mm 0.07 in1.8 mm
11:50 PM 33.3°F0.7°C 30.4°F-0.9°C 89% Calm Calm -- 29.87 in1011.5 mb 0.00 in0.0 mm 0.00 in0.0 mm 0.07 in1.8 mm
11:55 PM 33.4°F0.8°C 30.5°F-0.8°C 89% Calm Calm -- 29.87 in1011.5 mb 0.00 in0.0 mm 0.00 in0.0 mm 0.07 in1.8 mm